Time;durP1;ratioP1;P1;durP2;ratioP2;P2;SDS_P1;SDS_P2;PMS_P1;PMS_P2;Temp;Humidity;BMP_temperature;BMP_pressure;BME280_temperature;BME280_humidity;BME280_pressure;Samples;Min_cycle;Max_cycle;Signal;HPM_P1;HPM_P2
2022/03/23 00:01:40;;;;;;;20.83;18.57;;;;;;;;;;5055756;28;20810;-78
2022/03/23 00:04:07;;;;;;;23.30;17.60;;;;;;;;;;5059696;28;20825;-78
2022/03/23 00:06:34;;;;;;;20.60;17.93;;;;;;;;;;5057278;28;20994;-77
2022/03/23 00:09:02;;;;;;;19.73;17.67;;;;;;;;;;5053925;28;20511;-77
2022/03/23 00:11:29;;;;;;;23.67;18.43;;;;;;;;;;5053803;28;20487;-77
2022/03/23 00:13:56;;;;;;;19.40;17.40;;;;;;;;;;5054176;28;20929;-79
2022/03/23 00:16:24;;;;;;;19.00;16.50;;;;;;;;;;5054477;28;20441;-76
2022/03/23 00:18:51;;;;;;;19.60;17.50;;;;;;;;;;5054229;28;20447;-78
2022/03/23 00:21:19;;;;;;;19.93;17.83;;;;;;;;;;5062503;28;20477;-75
2022/03/23 00:23:46;;;;;;;18.90;16.87;;;;;;;;;;5057257;28;20497;-76
2022/03/23 00:26:15;;;;;;;19.50;16.70;;;;;;;;;;5088080;28;20499;-78
2022/03/23 00:28:43;;;;;;;19.90;16.90;;;;;;;;;;5075682;28;20441;-77
2022/03/23 00:31:10;;;;;;;20.47;16.93;;;;;;;;;;5074264;28;20452;-77
2022/03/23 00:33:37;;;;;;;20.20;17.13;;;;;;;;;;5074459;28;20465;-77
2022/03/23 00:36:04;;;;;;;23.43;17.27;;;;;;;;;;5070260;28;20433;-77
2022/03/23 00:38:31;;;;;;;25.00;19.10;;;;;;;;;;5072458;28;20543;-77
2022/03/23 00:40:58;;;;;;;20.27;18.10;;;;;;;;;;5066095;28;20494;-78
2022/03/23 00:43:27;;;;;;;23.90;18.70;;;;;;;;;;5058056;28;20480;-79
2022/03/23 00:45:54;;;;;;;26.90;19.00;;;;;;;;;;5054302;28;20542;-79
2022/03/23 00:48:21;;;;;;;23.87;17.50;;;;;;;;;;5054751;28;20453;-79
2022/03/23 00:50:48;;;;;;;21.90;18.87;;;;;;;;;;5054277;28;20426;-77
2022/03/23 00:53:17;;;;;;;19.57;17.43;;;;;;;;;;5053686;28;20991;-77
2022/03/23 00:55:44;;;;;;;22.20;18.20;;;;;;;;;;5056172;28;20528;-78
2022/03/23 00:58:11;;;;;;;21.93;16.70;;;;;;;;;;5055637;28;20450;-77
2022/03/23 01:00:41;;;;;;;19.13;17.10;;;;;;;;;;5055692;28;20454;-79
2022/03/23 01:03:08;;;;;;;19.60;17.20;;;;;;;;;;5065144;28;20460;-79
2022/03/23 01:05:35;;;;;;;18.93;16.97;;;;;;;;;;5056911;28;20576;-79
2022/03/23 01:08:02;;;;;;;18.30;16.40;;;;;;;;;;5054032;28;20452;-79
2022/03/23 01:10:29;;;;;;;20.10;17.87;;;;;;;;;;5052918;28;20821;-78
2022/03/23 01:12:56;;;;;;;21.53;17.40;;;;;;;;;;5053979;28;20512;-79
2022/03/23 01:15:23;;;;;;;18.90;16.07;;;;;;;;;;5054294;28;20446;-78
2022/03/23 01:17:52;;;;;;;19.73;16.77;;;;;;;;;;5055053;28;20449;-78
2022/03/23 01:20:21;;;;;;;18.97;16.90;;;;;;;;;;5053247;28;20461;-79
2022/03/23 01:22:48;;;;;;;17.90;16.00;;;;;;;;;;5053112;28;20988;-77
2022/03/23 01:25:15;;;;;;;18.87;16.83;;;;;;;;;;5053354;28;20449;-77
2022/03/23 01:27:43;;;;;;;21.70;18.40;;;;;;;;;;5053297;28;20793;-76
2022/03/23 01:30:12;;;;;;;19.60;15.77;;;;;;;;;;5053083;28;20499;-76
2022/03/23 01:32:39;;;;;;;21.67;15.80;;;;;;;;;;5053333;28;20492;-78
2022/03/23 01:35:08;;;;;;;19.13;17.10;;;;;;;;;;5055159;28;20495;-78
2022/03/23 01:37:35;;;;;;;17.57;15.70;;;;;;;;;;5052889;28;20455;-78
2022/03/23 01:40:03;;;;;;;18.90;16.77;;;;;;;;;;5053130;28;20635;-79
2022/03/23 01:42:30;;;;;;;18.53;16.67;;;;;;;;;;5053843;28;20469;-77
2022/03/23 01:44:57;;;;;;;19.50;16.80;;;;;;;;;;5052880;28;20476;-77
2022/03/23 01:47:24;;;;;;;17.60;15.80;;;;;;;;;;5052176;28;21073;-78
2022/03/23 01:49:53;;;;;;;18.13;16.23;;;;;;;;;;5053674;28;20511;-79
2022/03/23 01:52:22;;;;;;;19.13;16.53;;;;;;;;;;5052178;28;20480;-78
2022/03/23 01:54:49;;;;;;;20.20;16.60;;;;;;;;;;5052954;28;20459;-77
2022/03/23 01:57:17;;;;;;;18.40;16.40;;;;;;;;;;5053596;28;20445;-78
2022/03/23 01:59:44;;;;;;;18.30;16.20;;;;;;;;;;5055074;28;20452;-78
2022/03/23 02:02:11;;;;;;;19.00;16.17;;;;;;;;;;5054501;28;20445;-76
2022/03/23 02:04:39;;;;;;;17.60;15.80;;;;;;;;;;5054348;28;20441;-79
2022/03/23 02:07:06;;;;;;;17.70;15.73;;;;;;;;;;5052331;28;20996;-77
2022/03/23 02:09:34;;;;;;;18.60;16.60;;;;;;;;;;5052916;28;20445;-77
2022/03/23 02:12:02;;;;;;;18.23;16.27;;;;;;;;;;5053469;28;20454;-79
2022/03/23 02:14:29;;;;;;;17.87;15.97;;;;;;;;;;5052849;28;20480;-79
2022/03/23 02:16:56;;;;;;;18.20;15.90;;;;;;;;;;5052951;28;20437;-79
2022/03/23 02:19:23;;;;;;;19.60;16.70;;;;;;;;;;5053380;28;20862;-78
2022/03/23 02:21:53;;;;;;;19.13;17.20;;;;;;;;;;5053516;28;21270;-77
2022/03/23 02:24:23;;;;;;;20.27;16.73;;;;;;;;;;5051920;28;20488;-78
2022/03/23 02:26:50;;;;;;;18.37;16.43;;;;;;;;;;5052500;28;20472;-77
2022/03/23 02:29:17;;;;;;;19.03;16.00;;;;;;;;;;5052600;28;20438;-79
2022/03/23 02:31:44;;;;;;;18.77;16.23;;;;;;;;;;5052414;28;20440;-79
2022/03/23 02:34:12;;;;;;;21.17;18.00;;;;;;;;;;5066971;28;20447;-75
2022/03/23 02:36:39;;;;;;;18.10;16.30;;;;;;;;;;5076201;28;20426;-75
2022/03/23 02:39:07;;;;;;;19.33;17.33;;;;;;;;;;5076407;28;20447;-76
2022/03/23 02:41:34;;;;;;;19.03;15.70;;;;;;;;;;5057743;28;20453;-78
2022/03/23 02:44:01;;;;;;;20.90;18.03;;;;;;;;;;5052035;28;20469;-79
2022/03/23 02:46:35;;;;;;;17.90;16.10;;;;;;;;;;5052105;28;21003;-79
2022/03/23 02:49:02;;;;;;;19.50;17.30;;;;;;;;;;5051974;28;20448;-78
2022/03/23 02:51:29;;;;;;;20.20;16.53;;;;;;;;;;5051881;28;20448;-79
2022/03/23 03:02:21;;;;;;;17.87;15.90;;;;;;;;;;5050763;28;20980;-78
2022/03/23 03:04:49;;;;;;;21.10;16.90;;;;;;;;;;5051278;28;20445;-78
2022/03/23 03:07:16;;;;;;;19.13;17.07;;;;;;;;;;5051622;28;20495;-77
2022/03/23 03:09:43;;;;;;;22.00;18.57;;;;;;;;;;5051660;28;20539;-79
2022/03/23 03:12:12;;;;;;;26.63;18.00;;;;;;;;;;5050329;28;20442;-77
2022/03/23 03:14:39;;;;;;;24.27;19.17;;;;;;;;;;5051145;28;20515;-77
2022/03/23 03:17:07;;;;;;;22.90;19.47;;;;;;;;;;5050998;28;20474;-79
2022/03/23 03:19:34;;;;;;;20.77;18.70;;;;;;;;;;5051305;28;20445;-76
2022/03/23 03:22:01;;;;;;;20.97;17.57;;;;;;;;;;5050873;28;20925;-78
2022/03/23 03:24:28;;;;;;;20.80;18.63;;;;;;;;;;5049746;28;20463;-77
2022/03/23 03:26:55;;;;;;;20.90;18.30;;;;;;;;;;5050801;28;20496;-77
2022/03/23 03:29:25;;;;;;;22.37;20.07;;;;;;;;;;5050319;28;20545;-77
2022/03/23 03:31:52;;;;;;;21.43;19.23;;;;;;;;;;5050291;28;20956;-77
2022/03/23 03:34:19;;;;;;;22.53;19.30;;;;;;;;;;5051093;28;20465;-78
2022/03/23 03:36:46;;;;;;;24.90;20.20;;;;;;;;;;5051178;28;20800;-76
2022/03/23 03:39:14;;;;;;;20.40;18.30;;;;;;;;;;5056861;28;20454;-76
2022/03/23 03:41:41;;;;;;;20.80;18.30;;;;;;;;;;5057333;28;20456;-78
2022/03/23 03:44:08;;;;;;;25.83;20.00;;;;;;;;;;5057279;28;20589;-77
2022/03/23 03:46:37;;;;;;;21.00;18.70;;;;;;;;;;5056415;28;21047;-77
2022/03/23 03:49:04;;;;;;;22.37;19.90;;;;;;;;;;5055850;28;20444;-78
2022/03/23 03:51:31;;;;;;;26.30;20.47;;;;;;;;;;5053468;28;20436;-77
2022/03/23 03:53:58;;;;;;;21.23;19.03;;;;;;;;;;5050251;28;20470;-77
2022/03/23 03:56:25;;;;;;;27.27;20.67;;;;;;;;;;5050534;28;20504;-76
2022/03/23 03:58:53;;;;;;;23.63;21.00;;;;;;;;;;5050725;28;20991;-77
2022/03/23 04:01:20;;;;;;;24.67;20.70;;;;;;;;;;5050501;28;20443;-77
2022/03/23 04:03:49;;;;;;;24.43;20.73;;;;;;;;;;5050651;28;20464;-77
2022/03/23 04:06:16;;;;;;;22.47;19.70;;;;;;;;;;5052999;28;20446;-76
2022/03/23 04:08:43;;;;;;;25.00;20.20;;;;;;;;;;5051104;28;20449;-79
2022/03/23 04:11:10;;;;;;;24.10;20.37;;;;;;;;;;5051962;28;20451;-79
2022/03/23 04:13:37;;;;;;;25.10;20.80;;;;;;;;;;5050906;28;20469;-77
2022/03/23 04:16:05;;;;;;;22.40;19.80;;;;;;;;;;5050954;28;20442;-78
2022/03/23 04:18:32;;;;;;;26.70;21.20;;;;;;;;;;5050487;28;20444;-79
2022/03/23 04:21:00;;;;;;;24.97;19.87;;;;;;;;;;5049555;28;20456;-78
2022/03/23 04:23:27;;;;;;;22.73;19.90;;;;;;;;;;5050048;28;20460;-78
2022/03/23 04:25:55;;;;;;;24.43;20.30;;;;;;;;;;5049338;28;20456;-78
2022/03/23 04:28:22;;;;;;;23.63;21.00;;;;;;;;;;5055380;28;20481;-79
2022/03/23 04:30:49;;;;;;;22.17;19.80;;;;;;;;;;5062145;28;20537;-80
2022/03/23 04:33:16;;;;;;;29.27;20.57;;;;;;;;;;5071517;28;21065;-79
2022/03/23 04:35:43;;;;;;;24.93;20.23;;;;;;;;;;5072018;28;20445;-79
2022/03/23 04:38:12;;;;;;;24.17;20.30;;;;;;;;;;5071455;28;20446;-80
2022/03/23 04:40:39;;;;;;;21.80;19.37;;;;;;;;;;5071129;28;20533;-79
2022/03/23 04:43:06;;;;;;;26.20;21.37;;;;;;;;;;5071002;28;20991;-81
2022/03/23 04:45:33;;;;;;;24.17;21.53;;;;;;;;;;5073358;28;20521;-77
2022/03/23 04:48:01;;;;;;;23.27;20.63;;;;;;;;;;5073999;28;20487;-78
2022/03/23 04:50:28;;;;;;;26.20;20.43;;;;;;;;;;5074996;28;20866;-78
2022/03/23 04:52:55;;;;;;;23.77;20.20;;;;;;;;;;5074530;28;20531;-79
2022/03/23 04:55:24;;;;;;;28.00;21.47;;;;;;;;;;5073090;28;20964;-79
2022/03/23 04:57:51;;;;;;;24.17;20.40;;;;;;;;;;5074015;28;20441;-78
2022/03/23 05:00:20;;;;;;;27.40;20.90;;;;;;;;;;5073650;28;20960;-78
2022/03/23 05:02:48;;;;;;;23.33;20.40;;;;;;;;;;5072852;28;20477;-78
2022/03/23 05:05:16;;;;;;;25.87;20.47;;;;;;;;;;5067788;28;20446;-77
2022/03/23 05:07:43;;;;;;;24.17;20.30;;;;;;;;;;5053271;28;20528;-77
2022/03/23 05:10:12;;;;;;;26.60;19.80;;;;;;;;;;5053722;28;20460;-77
2022/03/23 05:12:41;;;;;;;23.43;20.57;;;;;;;;;;5052449;28;20484;-78
2022/03/23 05:15:08;;;;;;;25.00;21.60;;;;;;;;;;5054036;28;20426;-79
2022/03/23 05:17:36;;;;;;;25.93;20.77;;;;;;;;;;5052465;28;20485;-79
2022/03/23 05:20:04;;;;;;;22.97;20.50;;;;;;;;;;5053072;28;20437;-78
2022/03/23 05:22:31;;;;;;;24.30;21.60;;;;;;;;;;5054572;28;20466;-77
2022/03/23 05:24:59;;;;;;;29.97;20.80;;;;;;;;;;5052820;28;20453;-76
2022/03/23 05:27:26;;;;;;;25.00;20.83;;;;;;;;;;5052066;28;20488;-79
2022/03/23 05:29:54;;;;;;;23.63;21.07;;;;;;;;;;5054675;28;20445;-77
2022/03/23 05:32:21;;;;;;;26.50;21.60;;;;;;;;;;5052302;28;20933;-77
2022/03/23 05:34:49;;;;;;;26.63;21.93;;;;;;;;;;5052513;28;20434;-77
2022/03/23 05:37:16;;;;;;;27.60;21.27;;;;;;;;;;5052277;28;20517;-80
2022/03/23 05:39:44;;;;;;;24.97;21.93;;;;;;;;;;5053198;28;20464;-78
2022/03/23 05:42:11;;;;;;;26.37;21.87;;;;;;;;;;5052598;28;21039;-77
2022/03/23 05:44:38;;;;;;;31.47;23.27;;;;;;;;;;5052365;28;21014;-78
2022/03/23 05:47:06;;;;;;;31.00;23.47;;;;;;;;;;5053551;28;20482;-78
2022/03/23 05:49:33;;;;;;;25.63;21.23;;;;;;;;;;5064307;28;20456;-79
2022/03/23 05:52:01;;;;;;;25.97;22.50;;;;;;;;;;5061547;28;20450;-79
2022/03/23 05:54:28;;;;;;;28.90;23.50;;;;;;;;;;5060322;28;20482;-78
2022/03/23 05:56:55;;;;;;;27.87;21.17;;;;;;;;;;5064174;28;20433;-77
2022/03/23 05:59:22;;;;;;;26.10;21.20;;;;;;;;;;5073810;28;20813;-77
2022/03/23 06:01:49;;;;;;;25.90;20.67;;;;;;;;;;5076827;28;20970;-78
2022/03/23 06:04:17;;;;;;;28.53;22.10;;;;;;;;;;5072801;28;20471;-78
2022/03/23 06:06:44;;;;;;;27.13;22.40;;;;;;;;;;5052816;28;20606;-76
2022/03/23 06:09:12;;;;;;;26.27;21.80;;;;;;;;;;5052189;28;20443;-80
2022/03/23 06:11:39;;;;;;;26.40;22.80;;;;;;;;;;5052070;28;20806;-77
2022/03/23 06:14:06;;;;;;;38.37;23.77;;;;;;;;;;5051869;28;20456;-77
2022/03/23 06:16:34;;;;;;;29.50;22.83;;;;;;;;;;5051659;28;20438;-77
2022/03/23 06:19:01;;;;;;;25.90;23.10;;;;;;;;;;5051232;28;20469;-77
2022/03/23 06:21:29;;;;;;;29.20;23.73;;;;;;;;;;5051617;28;20913;-79
2022/03/23 06:23:56;;;;;;;29.90;23.50;;;;;;;;;;5052181;28;20823;-78
2022/03/23 06:26:23;;;;;;;28.63;23.10;;;;;;;;;;5052902;28;20453;-77
2022/03/23 06:28:50;;;;;;;28.93;24.50;;;;;;;;;;5052205;28;20475;-77
2022/03/23 06:31:17;;;;;;;25.10;22.40;;;;;;;;;;5052514;28;20439;-79
2022/03/23 06:33:44;;;;;;;34.53;23.10;;;;;;;;;;5051755;28;21037;-78
2022/03/23 06:36:11;;;;;;;26.97;22.03;;;;;;;;;;5051339;28;20451;-78
2022/03/23 06:38:40;;;;;;;29.30;22.47;;;;;;;;;;5053098;28;20459;-80
2022/03/23 06:41:07;;;;;;;28.63;22.60;;;;;;;;;;5055057;28;20447;-77
2022/03/23 06:43:34;;;;;;;28.80;22.63;;;;;;;;;;5061311;28;20477;-80
2022/03/23 06:46:01;;;;;;;26.03;23.00;;;;;;;;;;5056868;28;20495;-79
2022/03/23 06:48:29;;;;;;;26.20;22.93;;;;;;;;;;5057350;28;20483;-78
2022/03/23 06:50:56;;;;;;;28.97;21.63;;;;;;;;;;5054994;28;20454;-78
2022/03/23 06:53:23;;;;;;;28.20;23.20;;;;;;;;;;5053334;28;20476;-79
2022/03/23 06:55:52;;;;;;;32.37;26.30;;;;;;;;;;5055442;28;20507;-78
2022/03/23 06:58:19;;;;;;;27.07;22.10;;;;;;;;;;5061280;28;20525;-77
2022/03/23 07:00:46;;;;;;;23.30;20.77;;;;;;;;;;5062790;28;20915;-78
2022/03/23 07:03:13;;;;;;;26.63;21.90;;;;;;;;;;5060657;28;20449;-77
2022/03/23 07:05:40;;;;;;;31.93;24.37;;;;;;;;;;5058424;28;20989;-77
2022/03/23 07:10:53;;;;;;;26.60;22.60;;;;;;;;;;5059365;28;20440;-79
2022/03/23 07:13:20;;;;;;;27.27;22.80;;;;;;;;;;5054545;28;21032;-79
2022/03/23 07:15:47;;;;;;;27.33;22.33;;;;;;;;;;5059727;28;20560;-77
2022/03/23 07:18:14;;;;;;;27.97;22.47;;;;;;;;;;5059213;28;20445;-79
2022/03/23 07:20:41;;;;;;;26.00;22.70;;;;;;;;;;5055375;28;20466;-79
2022/03/23 07:23:08;;;;;;;28.07;21.70;;;;;;;;;;5055222;28;20477;-80
2022/03/23 07:25:35;;;;;;;26.20;22.73;;;;;;;;;;5054535;28;20437;-78
2022/03/23 07:28:04;;;;;;;29.13;24.33;;;;;;;;;;5057558;28;20487;-78
2022/03/23 07:30:33;;;;;;;26.63;23.73;;;;;;;;;;5057827;28;20471;-80
2022/03/23 07:33:00;;;;;;;27.10;22.70;;;;;;;;;;5059776;28;20468;-79
2022/03/23 07:35:28;;;;;;;26.60;23.27;;;;;;;;;;5054582;28;21036;-77
2022/03/23 07:37:55;;;;;;;28.93;23.30;;;;;;;;;;5051129;28;20449;-81
2022/03/23 07:40:22;;;;;;;29.63;23.93;;;;;;;;;;5049732;28;20473;-79
2022/03/23 07:42:49;;;;;;;28.30;23.47;;;;;;;;;;5064296;28;20473;-79
2022/03/23 07:45:17;;;;;;;26.43;23.40;;;;;;;;;;5065258;28;20441;-78
2022/03/23 07:47:45;;;;;;;25.17;22.27;;;;;;;;;;5066868;28;21061;-79
2022/03/23 07:50:12;;;;;;;28.00;25.00;;;;;;;;;;5062718;28;20449;-78
2022/03/23 07:52:39;;;;;;;29.63;21.77;;;;;;;;;;5071247;28;20456;-79
2022/03/23 07:55:06;;;;;;;30.67;23.40;;;;;;;;;;5070950;28;20535;-78
2022/03/23 07:57:34;;;;;;;26.90;24.10;;;;;;;;;;5065799;28;20637;-80
2022/03/23 08:00:01;;;;;;;30.67;23.03;;;;;;;;;;5061473;28;20801;-78
2022/03/23 08:02:29;;;;;;;28.87;22.80;;;;;;;;;;5059070;28;20441;-80
2022/03/23 08:04:56;;;;;;;28.37;22.90;;;;;;;;;;5060451;28;20955;-78
2022/03/23 08:07:23;;;;;;;26.40;23.50;;;;;;;;;;5063063;28;20440;-81
2022/03/23 08:09:50;;;;;;;28.50;22.33;;;;;;;;;;5052889;28;20450;-81
2022/03/23 08:12:18;;;;;;;28.30;22.63;;;;;;;;;;5060167;28;20438;-80
2022/03/23 08:14:46;;;;;;;26.07;23.00;;;;;;;;;;5069575;28;20456;-79
2022/03/23 08:17:13;;;;;;;27.00;23.23;;;;;;;;;;5071087;28;20517;-80
2022/03/23 08:19:41;;;;;;;31.63;24.43;;;;;;;;;;5074021;28;20448;-77
2022/03/23 08:22:09;;;;;;;25.97;23.17;;;;;;;;;;5075318;28;20460;-78
2022/03/23 08:24:36;;;;;;;28.20;23.63;;;;;;;;;;5071303;28;20544;-79
2022/03/23 08:27:03;;;;;;;26.27;23.03;;;;;;;;;;5057156;28;20473;-80
2022/03/23 08:29:30;;;;;;;26.97;23.70;;;;;;;;;;5056194;28;20483;-80
2022/03/23 08:31:57;;;;;;;30.00;23.77;;;;;;;;;;5056805;28;20446;-80
2022/03/23 08:34:25;;;;;;;25.53;22.80;;;;;;;;;;5056202;28;20466;-80
2022/03/23 08:36:54;;;;;;;31.50;24.00;;;;;;;;;;5056748;28;20880;-81
2022/03/23 08:39:21;;;;;;;27.60;24.43;;;;;;;;;;5056799;28;20452;-82
2022/03/23 08:41:48;;;;;;;28.13;23.73;;;;;;;;;;5056192;28;20461;-79
2022/03/23 08:44:16;;;;;;;28.23;24.03;;;;;;;;;;5056482;28;20522;-79
2022/03/23 08:46:43;;;;;;;30.73;24.77;;;;;;;;;;5051557;28;20926;-79
2022/03/23 08:49:11;;;;;;;28.43;25.40;;;;;;;;;;5060034;28;20479;-79
2022/03/23 08:51:38;;;;;;;27.53;24.20;;;;;;;;;;5056066;28;20485;-79
2022/03/23 08:54:06;;;;;;;27.50;24.03;;;;;;;;;;5055362;28;20479;-78
2022/03/23 08:56:33;;;;;;;28.30;24.63;;;;;;;;;;5069787;28;20505;-81
2022/03/23 08:59:00;;;;;;;27.67;24.73;;;;;;;;;;5053943;28;20452;-80
2022/03/23 09:01:27;;;;;;;30.07;24.10;;;;;;;;;;5066030;28;20446;-77
2022/03/23 09:04:00;;;;;;;28.00;25.00;;;;;;;;;;5075293;28;21036;-81
2022/03/23 09:06:27;;;;;;;29.97;23.70;;;;;;;;;;5058838;28;20450;-80
2022/03/23 09:08:54;;;;;;;29.73;23.43;;;;;;;;;;5055656;28;21161;-79
2022/03/23 09:11:23;;;;;;;26.77;23.97;;;;;;;;;;5055744;28;20438;-79
2022/03/23 09:13:50;;;;;;;29.60;25.90;;;;;;;;;;5055813;28;20537;-79
2022/03/23 09:16:17;;;;;;;26.43;23.40;;;;;;;;;;5054345;28;20450;-81
2022/03/23 09:18:45;;;;;;;28.40;25.30;;;;;;;;;;5063505;28;20442;-80
2022/03/23 09:21:13;;;;;;;35.23;25.10;;;;;;;;;;5062212;28;20445;-80
2022/03/23 09:23:40;;;;;;;27.90;24.70;;;;;;;;;;5055429;28;20461;-80
2022/03/23 09:26:09;;;;;;;27.97;24.40;;;;;;;;;;5056096;28;20434;-77
2022/03/23 09:28:37;;;;;;;27.00;24.40;;;;;;;;;;5057130;28;20909;-79
2022/03/23 09:31:05;;;;;;;26.97;23.97;;;;;;;;;;5055199;28;20859;-79
2022/03/23 09:33:32;;;;;;;28.93;24.50;;;;;;;;;;5055856;28;20462;-77
2022/03/23 09:35:59;;;;;;;25.90;23.27;;;;;;;;;;5055901;28;20449;-78
2022/03/23 09:38:26;;;;;;;27.43;23.50;;;;;;;;;;5055223;28;20536;-79
2022/03/23 09:40:54;;;;;;;25.27;22.70;;;;;;;;;;5055350;28;20492;-78
2022/03/23 09:43:22;;;;;;;27.13;24.33;;;;;;;;;;5056772;28;20466;-78
2022/03/23 09:45:51;;;;;;;26.73;23.87;;;;;;;;;;5055871;28;20535;-79
2022/03/23 09:48:20;;;;;;;25.77;23.20;;;;;;;;;;5055647;28;20473;-80
2022/03/23 09:50:50;;;;;;;25.87;23.37;;;;;;;;;;5056446;28;20824;-79
2022/03/23 09:53:17;;;;;;;27.30;24.33;;;;;;;;;;5055958;28;20453;-79
2022/03/23 09:55:44;;;;;;;28.57;21.07;;;;;;;;;;5057974;28;20442;-80
2022/03/23 09:58:11;;;;;;;23.47;21.07;;;;;;;;;;5059270;28;20450;-79
2022/03/23 10:00:40;;;;;;;26.20;22.93;;;;;;;;;;5059765;28;20514;-79
2022/03/23 10:03:21;;;;;;;24.20;21.70;;;;;;;;;;5058908;28;20458;-80
2022/03/23 10:06:16;;;;;;;21.73;19.40;;;;;;;;;;5056726;28;20457;-80
2022/03/23 10:08:59;;;;;;;22.10;19.90;;;;;;;;;;5022026;28;20484;-82
2022/03/23 10:11:41;;;;;;;21.57;19.60;;;;;;;;;;5059557;28;20503;-81
2022/03/23 10:14:42;;;;;;;23.17;20.73;;;;;;;;;;5015327;28;20465;-80
2022/03/23 10:17:15;;;;;;;21.30;19.20;;;;;;;;;;5058872;28;20434;-79
2022/03/23 10:19:43;;;;;;;17.00;15.40;;;;;;;;;;5059076;28;20437;-80
2022/03/23 10:22:11;;;;;;;17.03;15.40;;;;;;;;;;5059717;28;20438;-79
2022/03/23 10:24:39;;;;;;;17.90;15.90;;;;;;;;;;5062017;28;20438;-80
2022/03/23 10:27:07;;;;;;;17.70;15.77;;;;;;;;;;5057746;28;20457;-81
2022/03/23 10:29:49;;;;;;;15.83;14.57;;;;;;;;;;5056946;28;20569;-80
2022/03/23 10:32:17;;;;;;;17.13;15.63;;;;;;;;;;5057961;28;21004;-80
2022/03/23 10:34:46;;;;;;;16.33;14.93;;;;;;;;;;5055749;28;20809;-80
2022/03/23 10:37:13;;;;;;;18.53;16.50;;;;;;;;;;5055899;28;20790;-79
2022/03/23 10:39:42;;;;;;;17.93;15.80;;;;;;;;;;5055105;28;20489;-80
2022/03/23 10:42:10;;;;;;;23.07;20.63;;;;;;;;;;5053779;28;20445;-81
2022/03/23 10:44:37;;;;;;;17.97;16.37;;;;;;;;;;5055134;28;20952;-81
2022/03/23 10:47:04;;;;;;;17.03;15.53;;;;;;;;;;5068224;28;20456;-81
2022/03/23 10:49:32;;;;;;;16.80;15.50;;;;;;;;;;5073534;28;20484;-81
2022/03/23 10:52:08;;;;;;;18.47;16.77;;;;;;;;;;5047734;28;20441;-80
2022/03/23 10:54:35;;;;;;;17.97;16.20;;;;;;;;;;5062913;28;20437;-80
2022/03/23 10:57:03;;;;;;;20.30;17.63;;;;;;;;;;5067217;28;20452;-82
2022/03/23 10:59:32;;;;;;;19.77;18.00;;;;;;;;;;5075216;28;20852;-82
2022/03/23 11:02:00;;;;;;;18.07;16.60;;;;;;;;;;5075119;28;20861;-81
2022/03/23 11:04:29;;;;;;;17.60;15.87;;;;;;;;;;5075522;28;20632;-83
2022/03/23 11:06:58;;;;;;;16.27;14.97;;;;;;;;;;5075212;28;20444;-81
2022/03/23 11:18:10;;;;;;;16.57;15.17;;;;;;;;;;5055682;28;20548;-81
2022/03/23 11:20:47;;;;;;;16.43;15.00;;;;;;;;;;5053234;28;20850;-81
2022/03/23 11:23:19;;;;;;;15.53;14.13;;;;;;;;;;5054763;28;20477;-79
2022/03/23 11:25:46;;;;;;;17.97;15.80;;;;;;;;;;5056646;28;20470;-79
2022/03/23 11:28:15;;;;;;;15.40;14.20;;;;;;;;;;5057478;28;20452;-82
2022/03/23 11:30:42;;;;;;;15.23;13.60;;;;;;;;;;5056156;28;20517;-82
2022/03/23 11:33:11;;;;;;;15.20;14.00;;;;;;;;;;5054370;28;20824;-82
2022/03/23 11:35:44;;;;;;;16.23;14.63;;;;;;;;;;5054867;28;20438;-81
2022/03/23 11:38:13;;;;;;;15.13;13.70;;;;;;;;;;5047500;28;20434;-81
2022/03/23 11:40:42;;;;;;;13.77;12.57;;;;;;;;;;5052739;28;20515;-80
2022/03/23 11:43:10;;;;;;;14.40;13.20;;;;;;;;;;5051047;28;20500;-82
2022/03/23 11:45:39;;;;;;;14.63;13.43;;;;;;;;;;5055275;28;20447;-81
2022/03/23 11:48:10;;;;;;;14.33;12.50;;;;;;;;;;5055246;28;20433;-81
2022/03/23 11:50:43;;;;;;;13.57;12.57;;;;;;;;;;5055861;28;20485;-80
2022/03/23 11:53:12;;;;;;;13.00;11.87;;;;;;;;;;5053963;28;20831;-81
2022/03/23 11:55:41;;;;;;;13.20;11.90;;;;;;;;;;5055440;28;20453;-78
2022/03/23 11:58:16;;;;;;;13.53;12.50;;;;;;;;;;5055964;28;20443;-81
2022/03/23 12:00:46;;;;;;;13.07;12.07;;;;;;;;;;5056048;28;20952;-79
2022/03/23 12:03:16;;;;;;;13.27;12.17;;;;;;;;;;5055386;28;20456;-81
2022/03/23 12:05:51;;;;;;;12.20;11.30;;;;;;;;;;5054480;28;20453;-82
2022/03/23 12:08:36;;;;;;;12.87;11.77;;;;;;;;;;5054328;28;20952;-82
2022/03/23 12:11:23;;;;;;;14.50;13.13;;;;;;;;;;5053888;28;20429;-82
2022/03/23 12:13:57;;;;;;;13.17;11.97;;;;;;;;;;5053638;28;20458;-83
2022/03/23 12:16:48;;;;;;;12.37;11.23;;;;;;;;;;5054109;28;20917;-80
2022/03/23 12:19:18;;;;;;;13.17;11.83;;;;;;;;;;5053671;28;20434;-81
2022/03/23 12:21:49;;;;;;;13.13;11.93;;;;;;;;;;5054595;28;20415;-81
2022/03/23 12:24:26;;;;;;;13.83;12.63;;;;;;;;;;5053453;28;21121;-83
2022/03/23 12:26:54;;;;;;;13.77;12.53;;;;;;;;;;5054088;28;20450;-80
2022/03/23 12:29:23;;;;;;;13.87;12.47;;;;;;;;;;5046926;28;20478;-81
2022/03/23 12:31:51;;;;;;;13.10;11.97;;;;;;;;;;5054773;28;20503;-82
2022/03/23 12:34:20;;;;;;;12.87;11.77;;;;;;;;;;5053059;28;20484;-80
2022/03/23 12:36:57;;;;;;;13.30;12.20;;;;;;;;;;5053656;28;20449;-81
2022/03/23 12:39:25;;;;;;;14.17;12.90;;;;;;;;;;5053130;28;20453;-81
2022/03/23 12:41:52;;;;;;;13.60;12.40;;;;;;;;;;5053303;28;20495;-81
2022/03/23 12:44:20;;;;;;;13.77;12.47;;;;;;;;;;5052906;28;20484;-80
2022/03/23 12:46:48;;;;;;;13.07;11.97;;;;;;;;;;5053432;28;20453;-81
2022/03/23 12:57:52;;;;;;;14.13;12.87;;;;;;;;;;5053328;28;20417;-80
2022/03/23 13:00:28;;;;;;;14.13;12.73;;;;;;;;;;5053754;28;20430;-82
2022/03/23 13:03:26;;;;;;;13.73;12.63;;;;;;;;;;5053401;28;20493;-78
2022/03/23 13:06:10;;;;;;;13.00;11.60;;;;;;;;;;5055148;28;20501;-82
2022/03/23 13:08:48;;;;;;;12.30;11.30;;;;;;;;;;5061343;28;20441;-80
2022/03/23 13:11:16;;;;;;;13.70;12.60;;;;;;;;;;5064114;28;20855;-81
2022/03/23 13:13:46;;;;;;;13.20;12.07;;;;;;;;;;5058590;28;20519;-82
2022/03/23 13:16:14;;;;;;;13.10;12.00;;;;;;;;;;5057666;28;20445;-82
2022/03/23 13:18:41;;;;;;;12.60;11.63;;;;;;;;;;5054470;28;20450;-81
2022/03/23 13:21:11;;;;;;;12.57;10.63;;;;;;;;;;5060450;28;20960;-80
2022/03/23 13:23:40;;;;;;;13.40;12.30;;;;;;;;;;5071735;28;20514;-81
2022/03/23 13:26:08;;;;;;;14.80;13.60;;;;;;;;;;5062466;28;20852;-80
2022/03/23 13:28:37;;;;;;;14.17;12.97;;;;;;;;;;5059911;28;20470;-81
2022/03/23 13:31:07;;;;;;;13.40;12.17;;;;;;;;;;5073145;28;20481;-81
2022/03/23 13:33:37;;;;;;;13.57;12.43;;;;;;;;;;5073399;28;20488;-81
2022/03/23 13:36:05;;;;;;;15.03;13.83;;;;;;;;;;5062621;28;20446;-81
2022/03/23 13:38:37;;;;;;;13.10;12.10;;;;;;;;;;5056421;28;20452;-82
2022/03/23 13:43:52;;;;;;;13.93;12.90;;;;;;;;;;5060917;28;20465;-81
2022/03/23 13:46:19;;;;;;;15.00;13.63;;;;;;;;;;5056192;28;20438;-83
2022/03/23 13:48:53;;;;;;;14.10;12.90;;;;;;;;;;5056358;28;20445;-81
2022/03/23 13:51:20;;;;;;;13.93;12.93;;;;;;;;;;5056720;28;20884;-79
2022/03/23 13:53:49;;;;;;;13.20;12.10;;;;;;;;;;5055801;28;20452;-80
2022/03/23 13:56:17;;;;;;;14.77;13.43;;;;;;;;;;5056750;28;20793;-83
2022/03/23 13:58:45;;;;;;;14.53;13.33;;;;;;;;;;5058646;28;20452;-82
2022/03/23 14:01:12;;;;;;;13.70;12.50;;;;;;;;;;5065176;28;20462;-79
2022/03/23 14:03:40;;;;;;;14.70;13.50;;;;;;;;;;5067610;28;20446;-81
2022/03/23 14:06:09;;;;;;;15.37;14.17;;;;;;;;;;5068551;28;20472;-79
2022/03/23 14:08:37;;;;;;;14.87;13.67;;;;;;;;;;5065673;28;20497;-79
2022/03/23 14:11:06;;;;;;;15.50;14.00;;;;;;;;;;5063205;28;20904;-79
2022/03/23 14:13:36;;;;;;;15.20;13.73;;;;;;;;;;5075167;28;20453;-80
2022/03/23 14:16:04;;;;;;;14.00;12.80;;;;;;;;;;5075435;28;20574;-79
2022/03/23 14:18:32;;;;;;;15.90;14.50;;;;;;;;;;5073892;28;20476;-78
2022/03/23 14:21:00;;;;;;;15.73;14.30;;;;;;;;;;5074652;28;20437;-80
2022/03/23 14:23:29;;;;;;;13.93;12.53;;;;;;;;;;5073345;28;20458;-83
2022/03/23 14:25:56;;;;;;;14.83;13.53;;;;;;;;;;5060398;28;20426;-81
2022/03/23 14:28:26;;;;;;;14.60;13.40;;;;;;;;;;5057816;28;20459;-80
2022/03/23 14:30:57;;;;;;;13.33;12.10;;;;;;;;;;5056548;28;20909;-81
2022/03/23 14:33:25;;;;;;;14.33;12.90;;;;;;;;;;5056764;28;20822;-80
2022/03/23 14:35:53;;;;;;;14.67;13.27;;;;;;;;;;5056778;28;20454;-80
2022/03/23 14:38:21;;;;;;;15.10;13.57;;;;;;;;;;5055878;28;20449;-80
2022/03/23 14:40:48;;;;;;;15.23;13.63;;;;;;;;;;5056847;28;20450;-79
2022/03/23 14:43:37;;;;;;;15.00;13.80;;;;;;;;;;5055681;28;20488;-81
2022/03/23 14:46:22;;;;;;;15.17;13.87;;;;;;;;;;5050035;28;20461;-80
2022/03/23 14:49:01;;;;;;;14.70;13.40;;;;;;;;;;5056623;28;20521;-82
2022/03/23 14:51:28;;;;;;;15.60;14.10;;;;;;;;;;5056657;28;20481;-80
2022/03/23 14:53:55;;;;;;;14.77;13.60;;;;;;;;;;5055956;28;20469;-80
2022/03/23 14:56:22;;;;;;;14.33;13.10;;;;;;;;;;5055869;28;20440;-80